X  Luk Metar data        LGTS Thessaloniki Macedonia International
Temperatur
57°F Temperatur
45°F Duggpunkt
63% Fugtighed



Vind
5 MPT
7 KM/T
2 M/S
4 KNOB



140°
Nuværende forhold

Mostly Clear Mest klar
Tryk 1020 (hPa) - 30.12 (inHg)
Sigt 6 (mil) - 10 (km)
Lufthavn
Lufthavnskode LGTS

Lokation: Thessaloniki Macedonia International
Afstand: 85 (mi)

Metar:
METAR LGTS 150020Z 14004KT CAVOK 14/07 Q1020 NOSIG

Tid: 15-04-2024 03:20 EEST